sensor_id;sensor_type;location;lat;lon;timestamp;temperature;humidity
48686;DHT22;34485;51.536;3.816;2023-05-23T00:02:02;13.30;99.90
48686;DHT22;34485;51.536;3.816;2023-05-23T00:04:32;13.30;99.90
48686;DHT22;34485;51.536;3.816;2023-05-23T00:06:58;13.20;99.90
48686;DHT22;34485;51.536;3.816;2023-05-23T00:09:23;13.20;99.90
48686;DHT22;34485;51.536;3.816;2023-05-23T00:11:50;13.10;99.90
48686;DHT22;34485;51.536;3.816;2023-05-23T00:14:16;13.10;99.90
48686;DHT22;34485;51.536;3.816;2023-05-23T00:16:43;13.00;99.90
48686;DHT22;34485;51.536;3.816;2023-05-23T00:19:12;13.00;99.90
48686;DHT22;34485;51.536;3.816;2023-05-23T00:21:41;13.10;99.90
48686;DHT22;34485;51.536;3.816;2023-05-23T00:24:08;13.10;99.90
48686;DHT22;34485;51.536;3.816;2023-05-23T00:26:35;13.00;99.90
48686;DHT22;34485;51.536;3.816;2023-05-23T00:29:02;12.90;99.90
48686;DHT22;34485;51.536;3.816;2023-05-23T00:31:28;12.90;99.90
48686;DHT22;34485;51.536;3.816;2023-05-23T00:33:53;12.90;99.90
48686;DHT22;34485;51.536;3.816;2023-05-23T00:36:19;12.90;99.90
48686;DHT22;34485;51.536;3.816;2023-05-23T00:38:46;12.80;99.90
48686;DHT22;34485;51.536;3.816;2023-05-23T00:41:12;12.80;99.90
48686;DHT22;34485;51.536;3.816;2023-05-23T00:43:38;12.80;99.90
48686;DHT22;34485;51.536;3.816;2023-05-23T00:46:03;12.80;99.90
48686;DHT22;34485;51.536;3.816;2023-05-23T00:48:29;12.80;99.90
48686;DHT22;34485;51.536;3.816;2023-05-23T00:50:55;12.90;99.90
48686;DHT22;34485;51.536;3.816;2023-05-23T00:53:21;12.90;99.90
48686;DHT22;34485;51.536;3.816;2023-05-23T00:55:47;12.90;99.90
48686;DHT22;34485;51.536;3.816;2023-05-23T00:58:13;12.90;99.90
48686;DHT22;34485;51.536;3.816;2023-05-23T01:00:40;12.90;99.90
48686;DHT22;34485;51.536;3.816;2023-05-23T01:03:06;12.90;99.90
48686;DHT22;34485;51.536;3.816;2023-05-23T01:05:32;12.90;99.90
48686;DHT22;34485;51.536;3.816;2023-05-23T01:07:57;13.00;99.90
48686;DHT22;34485;51.536;3.816;2023-05-23T01:10:26;13.00;99.90
48686;DHT22;34485;51.536;3.816;2023-05-23T01:13:16;13.00;99.90
48686;DHT22;34485;51.536;3.816;2023-05-23T01:16:10;13.10;99.90
48686;DHT22;34485;51.536;3.816;2023-05-23T01:21:33;13.10;99.90
48686;DHT22;34485;51.536;3.816;2023-05-23T01:29:16;13.10;99.90
48686;DHT22;34485;51.536;3.816;2023-05-23T01:31:45;13.10;99.90
48686;DHT22;34485;51.536;3.816;2023-05-23T01:34:13;13.20;99.90
48686;DHT22;34485;51.536;3.816;2023-05-23T01:36:41;13.20;99.90
48686;DHT22;34485;51.536;3.816;2023-05-23T01:39:07;13.20;99.90
48686;DHT22;34485;51.536;3.816;2023-05-23T01:41:32;13.10;99.90
48686;DHT22;34485;51.536;3.816;2023-05-23T01:43:58;13.10;99.90
48686;DHT22;34485;51.536;3.816;2023-05-23T01:46:24;13.10;99.90
48686;DHT22;34485;51.536;3.816;2023-05-23T01:48:52;13.10;99.90
48686;DHT22;34485;51.536;3.816;2023-05-23T01:51:21;13.00;99.90
48686;DHT22;34485;51.536;3.816;2023-05-23T01:53:48;13.10;99.90
48686;DHT22;34485;51.536;3.816;2023-05-23T01:56:14;13.00;99.90
48686;DHT22;34485;51.536;3.816;2023-05-23T01:58:40;13.00;99.90
48686;DHT22;34485;51.536;3.816;2023-05-23T02:01:06;13.00;99.90
48686;DHT22;34485;51.536;3.816;2023-05-23T02:03:31;13.00;99.90
48686;DHT22;34485;51.536;3.816;2023-05-23T02:05:57;13.00;99.90
48686;DHT22;34485;51.536;3.816;2023-05-23T02:08:22;13.00;99.90
48686;DHT22;34485;51.536;3.816;2023-05-23T02:10:48;13.00;99.90
48686;DHT22;34485;51.536;3.816;2023-05-23T02:13:14;12.90;99.90
48686;DHT22;34485;51.536;3.816;2023-05-23T02:15:39;13.00;99.90
48686;DHT22;34485;51.536;3.816;2023-05-23T02:18:05;12.90;99.90
48686;DHT22;34485;51.536;3.816;2023-05-23T02:20:31;12.90;99.90
48686;DHT22;34485;51.536;3.816;2023-05-23T02:22:56;13.00;99.90
48686;DHT22;34485;51.536;3.816;2023-05-23T02:25:22;13.00;99.90
48686;DHT22;34485;51.536;3.816;2023-05-23T02:27:47;13.00;99.90
48686;DHT22;34485;51.536;3.816;2023-05-23T02:30:13;13.00;99.90
48686;DHT22;34485;51.536;3.816;2023-05-23T02:32:39;13.00;99.90
48686;DHT22;34485;51.536;3.816;2023-05-23T02:35:05;13.00;99.90
48686;DHT22;34485;51.536;3.816;2023-05-23T02:37:30;13.00;99.90
48686;DHT22;34485;51.536;3.816;2023-05-23T02:39:56;13.00;99.90
48686;DHT22;34485;51.536;3.816;2023-05-23T02:42:21;13.00;99.90
48686;DHT22;34485;51.536;3.816;2023-05-23T02:44:47;13.00;99.90
48686;DHT22;34485;51.536;3.816;2023-05-23T02:47:13;13.10;99.90
48686;DHT22;34485;51.536;3.816;2023-05-23T02:49:38;13.00;99.90
48686;DHT22;34485;51.536;3.816;2023-05-23T02:52:04;13.00;99.90
48686;DHT22;34485;51.536;3.816;2023-05-23T02:54:30;13.10;99.90
48686;DHT22;34485;51.536;3.816;2023-05-23T02:56:55;13.10;99.90
48686;DHT22;34485;51.536;3.816;2023-05-23T02:59:21;13.00;99.90
48686;DHT22;34485;51.536;3.816;2023-05-23T03:01:47;13.00;99.90
48686;DHT22;34485;51.536;3.816;2023-05-23T03:04:13;13.00;99.90
48686;DHT22;34485;51.536;3.816;2023-05-23T03:06:39;13.00;99.90
48686;DHT22;34485;51.536;3.816;2023-05-23T03:09:07;13.00;99.90
48686;DHT22;34485;51.536;3.816;2023-05-23T03:11:33;12.90;99.90
48686;DHT22;34485;51.536;3.816;2023-05-23T03:13:58;12.90;99.90
48686;DHT22;34485;51.536;3.816;2023-05-23T03:16:24;12.90;99.90
48686;DHT22;34485;51.536;3.816;2023-05-23T03:18:50;12.90;99.90
48686;DHT22;34485;51.536;3.816;2023-05-23T03:21:15;12.90;99.90
48686;DHT22;34485;51.536;3.816;2023-05-23T03:23:41;12.90;99.90
48686;DHT22;34485;51.536;3.816;2023-05-23T03:26:06;12.90;99.90
48686;DHT22;34485;51.536;3.816;2023-05-23T03:28:32;12.90;99.90
48686;DHT22;34485;51.536;3.816;2023-05-23T03:30:58;12.90;99.90
48686;DHT22;34485;51.536;3.816;2023-05-23T03:33:24;12.80;99.90
48686;DHT22;34485;51.536;3.816;2023-05-23T03:35:50;12.80;99.90
48686;DHT22;34485;51.536;3.816;2023-05-23T03:38:15;12.80;99.90
48686;DHT22;34485;51.536;3.816;2023-05-23T03:40:41;12.80;99.90
48686;DHT22;34485;51.536;3.816;2023-05-23T03:43:07;12.80;99.90
48686;DHT22;34485;51.536;3.816;2023-05-23T03:45:33;12.80;99.90
48686;DHT22;34485;51.536;3.816;2023-05-23T03:47:59;12.80;99.90
48686;DHT22;34485;51.536;3.816;2023-05-23T03:50:25;12.80;99.90
48686;DHT22;34485;51.536;3.816;2023-05-23T03:52:51;12.80;99.90
48686;DHT22;34485;51.536;3.816;2023-05-23T03:55:17;12.80;99.90
48686;DHT22;34485;51.536;3.816;2023-05-23T03:57:49;12.80;99.90
48686;DHT22;34485;51.536;3.816;2023-05-23T04:00:16;12.70;99.90
48686;DHT22;34485;51.536;3.816;2023-05-23T04:02:45;12.70;99.90
48686;DHT22;34485;51.536;3.816;2023-05-23T04:05:12;12.60;99.90
48686;DHT22;34485;51.536;3.816;2023-05-23T04:07:38;12.60;99.90
48686;DHT22;34485;51.536;3.816;2023-05-23T04:10:04;12.60;99.90
48686;DHT22;34485;51.536;3.816;2023-05-23T04:12:30;12.60;99.90
48686;DHT22;34485;51.536;3.816;2023-05-23T04:14:56;12.60;99.90
48686;DHT22;34485;51.536;3.816;2023-05-23T04:17:22;12.60;99.90
48686;DHT22;34485;51.536;3.816;2023-05-23T04:19:49;12.60;99.90
48686;DHT22;34485;51.536;3.816;2023-05-23T04:22:15;12.60;99.90
48686;DHT22;34485;51.536;3.816;2023-05-23T04:24:41;12.60;99.90
48686;DHT22;34485;51.536;3.816;2023-05-23T04:27:07;12.50;99.90
48686;DHT22;34485;51.536;3.816;2023-05-23T04:29:33;12.50;99.90
48686;DHT22;34485;51.536;3.816;2023-05-23T04:32:00;12.50;99.90
48686;DHT22;34485;51.536;3.816;2023-05-23T04:34:26;12.40;99.90
48686;DHT22;34485;51.536;3.816;2023-05-23T04:36:52;12.40;99.90
48686;DHT22;34485;51.536;3.816;2023-05-23T04:39:19;12.40;99.90
48686;DHT22;34485;51.536;3.816;2023-05-23T04:41:44;12.40;99.90
48686;DHT22;34485;51.536;3.816;2023-05-23T04:44:11;12.40;99.90
48686;DHT22;34485;51.536;3.816;2023-05-23T04:46:36;12.50;99.90
48686;DHT22;34485;51.536;3.816;2023-05-23T04:49:06;12.50;99.90
48686;DHT22;34485;51.536;3.816;2023-05-23T04:51:32;12.60;99.90
48686;DHT22;34485;51.536;3.816;2023-05-23T04:53:58;12.60;99.90
48686;DHT22;34485;51.536;3.816;2023-05-23T04:56:23;12.50;99.90
48686;DHT22;34485;51.536;3.816;2023-05-23T04:58:52;12.50;99.90
48686;DHT22;34485;51.536;3.816;2023-05-23T05:01:18;12.60;99.90
48686;DHT22;34485;51.536;3.816;2023-05-23T05:03:44;12.60;99.90
48686;DHT22;34485;51.536;3.816;2023-05-23T05:06:09;12.60;99.90
48686;DHT22;34485;51.536;3.816;2023-05-23T05:08:35;12.60;99.90
48686;DHT22;34485;51.536;3.816;2023-05-23T05:11:01;12.60;99.90
48686;DHT22;34485;51.536;3.816;2023-05-23T05:13:27;12.50;99.90
48686;DHT22;34485;51.536;3.816;2023-05-23T05:15:52;12.50;99.90
48686;DHT22;34485;51.536;3.816;2023-05-23T05:18:18;12.50;99.90
48686;DHT22;34485;51.536;3.816;2023-05-23T05:20:43;12.50;99.90
48686;DHT22;34485;51.536;3.816;2023-05-23T05:23:09;12.50;99.90
48686;DHT22;34485;51.536;3.816;2023-05-23T05:25:36;12.50;99.90
48686;DHT22;34485;51.536;3.816;2023-05-23T05:28:02;12.40;99.90
48686;DHT22;34485;51.536;3.816;2023-05-23T05:30:32;12.40;99.90
48686;DHT22;34485;51.536;3.816;2023-05-23T05:33:02;12.40;99.90
48686;DHT22;34485;51.536;3.816;2023-05-23T05:35:32;12.30;99.90
48686;DHT22;34485;51.536;3.816;2023-05-23T05:38:01;12.30;99.90
48686;DHT22;34485;51.536;3.816;2023-05-23T05:40:31;12.20;99.90
48686;DHT22;34485;51.536;3.816;2023-05-23T05:42:57;12.20;99.90
48686;DHT22;34485;51.536;3.816;2023-05-23T05:45:23;12.10;99.90
48686;DHT22;34485;51.536;3.816;2023-05-23T05:47:48;12.10;99.90
48686;DHT22;34485;51.536;3.816;2023-05-23T05:50:14;12.10;99.90
48686;DHT22;34485;51.536;3.816;2023-05-23T05:52:40;12.10;99.90
48686;DHT22;34485;51.536;3.816;2023-05-23T05:55:08;12.10;99.90
48686;DHT22;34485;51.536;3.816;2023-05-23T05:57:36;12.20;99.90
48686;DHT22;34485;51.536;3.816;2023-05-23T06:00:07;12.20;99.90
48686;DHT22;34485;51.536;3.816;2023-05-23T06:02:38;12.20;99.90
48686;DHT22;34485;51.536;3.816;2023-05-23T06:05:04;12.30;99.90
48686;DHT22;34485;51.536;3.816;2023-05-23T06:07:33;12.30;99.90
48686;DHT22;34485;51.536;3.816;2023-05-23T06:09:58;12.20;99.90
48686;DHT22;34485;51.536;3.816;2023-05-23T06:12:24;12.30;99.90
48686;DHT22;34485;51.536;3.816;2023-05-23T06:14:49;12.30;99.90
48686;DHT22;34485;51.536;3.816;2023-05-23T06:17:15;12.30;99.90
48686;DHT22;34485;51.536;3.816;2023-05-23T06:19:41;12.30;99.90
48686;DHT22;34485;51.536;3.816;2023-05-23T06:22:06;12.30;99.90
48686;DHT22;34485;51.536;3.816;2023-05-23T06:24:32;12.30;99.90
48686;DHT22;34485;51.536;3.816;2023-05-23T06:26:57;12.40;99.90
48686;DHT22;34485;51.536;3.816;2023-05-23T06:29:23;12.40;99.90
48686;DHT22;34485;51.536;3.816;2023-05-23T06:31:49;12.40;99.90
48686;DHT22;34485;51.536;3.816;2023-05-23T06:34:15;12.40;99.90
48686;DHT22;34485;51.536;3.816;2023-05-23T06:36:41;12.40;99.90
48686;DHT22;34485;51.536;3.816;2023-05-23T06:39:07;12.40;99.90
48686;DHT22;34485;51.536;3.816;2023-05-23T06:41:35;12.40;99.90
48686;DHT22;34485;51.536;3.816;2023-05-23T06:44:00;12.40;99.90
48686;DHT22;34485;51.536;3.816;2023-05-23T06:46:26;12.40;99.90
48686;DHT22;34485;51.536;3.816;2023-05-23T06:48:51;12.40;99.90
48686;DHT22;34485;51.536;3.816;2023-05-23T06:51:17;12.30;99.90
48686;DHT22;34485;51.536;3.816;2023-05-23T06:53:43;12.30;99.90
48686;DHT22;34485;51.536;3.816;2023-05-23T06:56:08;12.30;99.90
48686;DHT22;34485;51.536;3.816;2023-05-23T06:58:34;12.30;99.90
48686;DHT22;34485;51.536;3.816;2023-05-23T07:00:59;12.20;99.90
48686;DHT22;34485;51.536;3.816;2023-05-23T07:03:25;12.30;99.90
48686;DHT22;34485;51.536;3.816;2023-05-23T07:05:51;12.30;99.90
48686;DHT22;34485;51.536;3.816;2023-05-23T07:08:17;12.40;99.90
48686;DHT22;34485;51.536;3.816;2023-05-23T07:10:43;12.40;99.90
48686;DHT22;34485;51.536;3.816;2023-05-23T07:13:08;12.60;99.90
48686;DHT22;34485;51.536;3.816;2023-05-23T07:15:34;12.70;99.90
48686;DHT22;34485;51.536;3.816;2023-05-23T07:18:00;12.80;99.90
48686;DHT22;34485;51.536;3.816;2023-05-23T07:20:26;13.00;99.90
48686;DHT22;34485;51.536;3.816;2023-05-23T07:22:51;13.10;99.90
48686;DHT22;34485;51.536;3.816;2023-05-23T07:25:17;13.20;99.90
48686;DHT22;34485;51.536;3.816;2023-05-23T07:27:43;13.30;99.90
48686;DHT22;34485;51.536;3.816;2023-05-23T07:30:09;13.30;99.80
48686;DHT22;34485;51.536;3.816;2023-05-23T07:32:35;13.30;99.50
48686;DHT22;34485;51.536;3.816;2023-05-23T07:35:01;13.40;99.90
48686;DHT22;34485;51.536;3.816;2023-05-23T07:37:26;13.50;99.70
48686;DHT22;34485;51.536;3.816;2023-05-23T07:39:52;13.50;99.90
48686;DHT22;34485;51.536;3.816;2023-05-23T07:42:18;13.50;99.70
48686;DHT22;34485;51.536;3.816;2023-05-23T07:44:44;13.50;98.50
48686;DHT22;34485;51.536;3.816;2023-05-23T07:47:09;13.80;99.30
48686;DHT22;34485;51.536;3.816;2023-05-23T07:49:35;14.40;97.70
48686;DHT22;34485;51.536;3.816;2023-05-23T07:52:03;14.40;97.60
48686;DHT22;34485;51.536;3.816;2023-05-23T07:54:29;14.50;96.60
48686;DHT22;34485;51.536;3.816;2023-05-23T07:56:55;14.40;96.50
48686;DHT22;34485;51.536;3.816;2023-05-23T07:59:21;14.30;97.00
48686;DHT22;34485;51.536;3.816;2023-05-23T08:01:47;14.60;96.50
48686;DHT22;34485;51.536;3.816;2023-05-23T08:04:16;14.60;95.60
48686;DHT22;34485;51.536;3.816;2023-05-23T08:06:41;14.60;94.70
48686;DHT22;34485;51.536;3.816;2023-05-23T08:09:07;14.50;93.80
48686;DHT22;34485;51.536;3.816;2023-05-23T08:11:34;14.50;93.90
48686;DHT22;34485;51.536;3.816;2023-05-23T08:14:00;14.80;94.80
48686;DHT22;34485;51.536;3.816;2023-05-23T08:16:26;15.10;93.50
48686;DHT22;34485;51.536;3.816;2023-05-23T08:18:52;15.30;93.60
48686;DHT22;34485;51.536;3.816;2023-05-23T08:21:17;15.60;91.50
48686;DHT22;34485;51.536;3.816;2023-05-23T08:23:43;15.90;92.40
48686;DHT22;34485;51.536;3.816;2023-05-23T08:26:09;15.90;91.80
48686;DHT22;34485;51.536;3.816;2023-05-23T08:28:34;15.70;92.70
48686;DHT22;34485;51.536;3.816;2023-05-23T08:31:00;16.00;94.00
48686;DHT22;34485;51.536;3.816;2023-05-23T08:33:26;16.10;91.70
48686;DHT22;34485;51.536;3.816;2023-05-23T08:35:51;16.20;91.70
48686;DHT22;34485;51.536;3.816;2023-05-23T08:38:17;16.00;92.20
48686;DHT22;34485;51.536;3.816;2023-05-23T08:40:49;15.80;91.50
48686;DHT22;34485;51.536;3.816;2023-05-23T08:45:42;16.40;90.10
48686;DHT22;34485;51.536;3.816;2023-05-23T08:48:11;16.60;89.60
48686;DHT22;34485;51.536;3.816;2023-05-23T08:50:39;16.50;87.80
48686;DHT22;34485;51.536;3.816;2023-05-23T08:53:08;16.40;87.20
48686;DHT22;34485;51.536;3.816;2023-05-23T08:55:36;16.00;90.40
48686;DHT22;34485;51.536;3.816;2023-05-23T08:58:02;15.80;92.20
48686;DHT22;34485;51.536;3.816;2023-05-23T09:00:28;16.10;90.50
48686;DHT22;34485;51.536;3.816;2023-05-23T09:02:54;16.20;88.80
48686;DHT22;34485;51.536;3.816;2023-05-23T09:05:21;16.50;90.90
48686;DHT22;34485;51.536;3.816;2023-05-23T09:10:14;18.00;83.40
48686;DHT22;34485;51.536;3.816;2023-05-23T09:12:44;17.80;82.10
48686;DHT22;34485;51.536;3.816;2023-05-23T09:15:11;18.20;83.00
48686;DHT22;34485;51.536;3.816;2023-05-23T09:17:37;18.00;78.00
48686;DHT22;34485;51.536;3.816;2023-05-23T09:20:10;17.80;80.00
48686;DHT22;34485;51.536;3.816;2023-05-23T09:22:36;17.50;85.00
48686;DHT22;34485;51.536;3.816;2023-05-23T09:25:02;17.60;84.40
48686;DHT22;34485;51.536;3.816;2023-05-23T09:27:27;17.60;82.50
48686;DHT22;34485;51.536;3.816;2023-05-23T09:29:53;17.60;84.30
48686;DHT22;34485;51.536;3.816;2023-05-23T09:32:20;17.70;79.50
48686;DHT22;34485;51.536;3.816;2023-05-23T09:34:57;17.40;81.80
48686;DHT22;34485;51.536;3.816;2023-05-23T09:37:36;17.10;83.70
48686;DHT22;34485;51.536;3.816;2023-05-23T09:40:11;17.10;87.00
48686;DHT22;34485;51.536;3.816;2023-05-23T09:42:47;17.50;84.90
48686;DHT22;34485;51.536;3.816;2023-05-23T09:45:14;17.70;85.00
48686;DHT22;34485;51.536;3.816;2023-05-23T09:47:48;18.20;79.30
48686;DHT22;34485;51.536;3.816;2023-05-23T09:50:15;18.20;77.00
48686;DHT22;34485;51.536;3.816;2023-05-23T09:52:41;17.70;80.50
48686;DHT22;34485;51.536;3.816;2023-05-23T09:55:07;17.80;80.20
48686;DHT22;34485;51.536;3.816;2023-05-23T09:57:34;17.80;84.00
48686;DHT22;34485;51.536;3.816;2023-05-23T10:00:03;18.20;80.50
48686;DHT22;34485;51.536;3.816;2023-05-23T10:02:51;18.70;80.40
48686;DHT22;34485;51.536;3.816;2023-05-23T10:05:45;18.40;77.50
48686;DHT22;34485;51.536;3.816;2023-05-23T10:08:19;17.90;83.40
48686;DHT22;34485;51.536;3.816;2023-05-23T10:13:15;18.90;79.40
48686;DHT22;34485;51.536;3.816;2023-05-23T10:15:41;18.90;77.00
48686;DHT22;34485;51.536;3.816;2023-05-23T10:18:20;18.30;76.70
48686;DHT22;34485;51.536;3.816;2023-05-23T10:20:51;18.50;82.50
48686;DHT22;34485;51.536;3.816;2023-05-23T10:23:18;18.20;77.30
48686;DHT22;34485;51.536;3.816;2023-05-23T10:25:44;17.90;84.20
48686;DHT22;34485;51.536;3.816;2023-05-23T10:28:10;17.80;80.00
48686;DHT22;34485;51.536;3.816;2023-05-23T10:30:38;17.50;83.20
48686;DHT22;34485;51.536;3.816;2023-05-23T10:33:05;17.50;83.50
48686;DHT22;34485;51.536;3.816;2023-05-23T10:35:51;17.60;83.30
48686;DHT22;34485;51.536;3.816;2023-05-23T10:43:54;18.40;78.30
48686;DHT22;34485;51.536;3.816;2023-05-23T10:46:21;18.40;77.30
48686;DHT22;34485;51.536;3.816;2023-05-23T10:48:47;18.60;78.40
48686;DHT22;34485;51.536;3.816;2023-05-23T10:51:18;18.50;76.50
48686;DHT22;34485;51.536;3.816;2023-05-23T10:53:45;18.30;75.40
48686;DHT22;34485;51.536;3.816;2023-05-23T10:56:22;18.00;78.30
48686;DHT22;34485;51.536;3.816;2023-05-23T10:58:52;17.80;80.60
48686;DHT22;34485;51.536;3.816;2023-05-23T11:01:19;18.10;76.20
48686;DHT22;34485;51.536;3.816;2023-05-23T11:06:28;18.80;78.50
48686;DHT22;34485;51.536;3.816;2023-05-23T11:09:02;18.40;74.90
48686;DHT22;34485;51.536;3.816;2023-05-23T11:14:13;18.40;79.60
48686;DHT22;34485;51.536;3.816;2023-05-23T11:16:43;18.60;80.40
48686;DHT22;34485;51.536;3.816;2023-05-23T11:21:51;18.50;78.20
48686;DHT22;34485;51.536;3.816;2023-05-23T11:24:17;18.70;75.30
48686;DHT22;34485;51.536;3.816;2023-05-23T11:26:53;18.60;75.40
48686;DHT22;34485;51.536;3.816;2023-05-23T11:29:19;18.80;76.00
48686;DHT22;34485;51.536;3.816;2023-05-23T11:31:45;18.70;72.00
48686;DHT22;34485;51.536;3.816;2023-05-23T11:34:11;18.60;74.50
48686;DHT22;34485;51.536;3.816;2023-05-23T11:36:38;18.90;76.00
48686;DHT22;34485;51.536;3.816;2023-05-23T11:39:05;19.00;73.40
48686;DHT22;34485;51.536;3.816;2023-05-23T11:41:31;18.30;75.60
48686;DHT22;34485;51.536;3.816;2023-05-23T11:43:57;17.80;78.50
48686;DHT22;34485;51.536;3.816;2023-05-23T11:46:26;17.30;82.60
48686;DHT22;34485;51.536;3.816;2023-05-23T11:51:17;17.70;76.10
48686;DHT22;34485;51.536;3.816;2023-05-23T11:53:46;17.50;80.10
48686;DHT22;34485;51.536;3.816;2023-05-23T11:56:14;17.50;80.20
48686;DHT22;34485;51.536;3.816;2023-05-23T11:58:40;17.30;81.50
48686;DHT22;34485;51.536;3.816;2023-05-23T12:01:08;17.30;85.40
48686;DHT22;34485;51.536;3.816;2023-05-23T12:03:44;17.30;82.20
48686;DHT22;34485;51.536;3.816;2023-05-23T12:06:13;17.30;80.70
48686;DHT22;34485;51.536;3.816;2023-05-23T12:08:39;17.30;78.50
48686;DHT22;34485;51.536;3.816;2023-05-23T12:11:05;17.10;75.80
48686;DHT22;34485;51.536;3.816;2023-05-23T12:13:31;17.00;81.10
48686;DHT22;34485;51.536;3.816;2023-05-23T12:16:01;17.20;81.60
48686;DHT22;34485;51.536;3.816;2023-05-23T12:18:28;17.30;78.50
48686;DHT22;34485;51.536;3.816;2023-05-23T12:20:54;17.30;78.60
48686;DHT22;34485;51.536;3.816;2023-05-23T12:23:23;17.20;80.10
48686;DHT22;34485;51.536;3.816;2023-05-23T12:25:54;17.00;77.50
48686;DHT22;34485;51.536;3.816;2023-05-23T12:28:40;16.90;81.30
48686;DHT22;34485;51.536;3.816;2023-05-23T12:33:41;16.60;84.50
48686;DHT22;34485;51.536;3.816;2023-05-23T12:36:11;16.50;82.20
48686;DHT22;34485;51.536;3.816;2023-05-23T12:38:36;16.60;85.10
48686;DHT22;34485;51.536;3.816;2023-05-23T12:41:15;16.60;82.60
48686;DHT22;34485;51.536;3.816;2023-05-23T12:46:14;16.80;81.90
48686;DHT22;34485;51.536;3.816;2023-05-23T12:48:39;17.00;80.90
48686;DHT22;34485;51.536;3.816;2023-05-23T12:51:05;17.20;81.80
48686;DHT22;34485;51.536;3.816;2023-05-23T12:53:31;17.40;81.10
48686;DHT22;34485;51.536;3.816;2023-05-23T12:55:56;17.30;82.60
48686;DHT22;34485;51.536;3.816;2023-05-23T12:58:22;17.00;80.20
48686;DHT22;34485;51.536;3.816;2023-05-23T13:00:48;16.70;80.30
48686;DHT22;34485;51.536;3.816;2023-05-23T13:03:13;16.60;81.80
48686;DHT22;34485;51.536;3.816;2023-05-23T13:05:39;16.50;82.10
48686;DHT22;34485;51.536;3.816;2023-05-23T13:08:05;16.60;84.00
48686;DHT22;34485;51.536;3.816;2023-05-23T13:15:23;16.40;99.90
48686;DHT22;34485;51.536;3.816;2023-05-23T13:17:48;16.60;85.60
48686;DHT22;34485;51.536;3.816;2023-05-23T13:20:14;16.50;85.20
48686;DHT22;34485;51.536;3.816;2023-05-23T13:22:40;16.60;87.10
48686;DHT22;34485;51.536;3.816;2023-05-23T13:25:07;16.70;82.80
48686;DHT22;34485;51.536;3.816;2023-05-23T13:27:33;16.70;81.30
48686;DHT22;34485;51.536;3.816;2023-05-23T13:29:59;16.70;83.90
48686;DHT22;34485;51.536;3.816;2023-05-23T13:32:25;16.60;83.40
48686;DHT22;34485;51.536;3.816;2023-05-23T13:34:50;16.50;82.60
48686;DHT22;34485;51.536;3.816;2023-05-23T13:37:16;16.40;80.80
48686;DHT22;34485;51.536;3.816;2023-05-23T13:39:42;16.30;83.70
48686;DHT22;34485;51.536;3.816;2023-05-23T13:42:08;16.10;83.90
48686;DHT22;34485;51.536;3.816;2023-05-23T13:44:33;16.00;83.80
48686;DHT22;34485;51.536;3.816;2023-05-23T13:47:09;16.00;82.80
48686;DHT22;34485;51.536;3.816;2023-05-23T13:49:36;16.10;83.00
48686;DHT22;34485;51.536;3.816;2023-05-23T13:52:01;16.10;83.00
48686;DHT22;34485;51.536;3.816;2023-05-23T13:54:27;16.30;82.10
48686;DHT22;34485;51.536;3.816;2023-05-23T13:56:53;16.40;79.10
48686;DHT22;34485;51.536;3.816;2023-05-23T13:59:18;16.60;79.30
48686;DHT22;34485;51.536;3.816;2023-05-23T14:01:46;16.50;79.40
48686;DHT22;34485;51.536;3.816;2023-05-23T14:04:11;16.40;82.10
48686;DHT22;34485;51.536;3.816;2023-05-23T14:06:37;16.40;82.20
48686;DHT22;34485;51.536;3.816;2023-05-23T14:09:03;16.40;82.60
48686;DHT22;34485;51.536;3.816;2023-05-23T14:11:30;16.30;80.30
48686;DHT22;34485;51.536;3.816;2023-05-23T14:13:56;16.00;81.20
48686;DHT22;34485;51.536;3.816;2023-05-23T14:16:21;16.00;85.90
48686;DHT22;34485;51.536;3.816;2023-05-23T14:18:47;16.20;84.60
48686;DHT22;34485;51.536;3.816;2023-05-23T14:21:13;16.20;80.90
48686;DHT22;34485;51.536;3.816;2023-05-23T14:23:38;16.20;81.20
48686;DHT22;34485;51.536;3.816;2023-05-23T14:26:04;16.10;80.50
48686;DHT22;34485;51.536;3.816;2023-05-23T14:28:30;16.20;79.50
48686;DHT22;34485;51.536;3.816;2023-05-23T14:30:55;16.00;81.60
48686;DHT22;34485;51.536;3.816;2023-05-23T14:33:21;16.00;80.20
48686;DHT22;34485;51.536;3.816;2023-05-23T14:35:47;16.10;83.10
48686;DHT22;34485;51.536;3.816;2023-05-23T14:38:13;15.70;79.20
48686;DHT22;34485;51.536;3.816;2023-05-23T14:40:39;15.50;78.50
48686;DHT22;34485;51.536;3.816;2023-05-23T14:43:04;15.50;86.50
48686;DHT22;34485;51.536;3.816;2023-05-23T14:45:30;15.40;79.40
48686;DHT22;34485;51.536;3.816;2023-05-23T14:47:56;15.40;78.50
48686;DHT22;34485;51.536;3.816;2023-05-23T14:50:21;15.30;81.90
48686;DHT22;34485;51.536;3.816;2023-05-23T14:52:47;15.30;79.60
48686;DHT22;34485;51.536;3.816;2023-05-23T14:55:12;15.40;84.30
48686;DHT22;34485;51.536;3.816;2023-05-23T14:57:38;15.40;86.80
48686;DHT22;34485;51.536;3.816;2023-05-23T15:00:04;15.50;84.60
48686;DHT22;34485;51.536;3.816;2023-05-23T15:02:31;15.60;82.70
48686;DHT22;34485;51.536;3.816;2023-05-23T15:04:57;15.70;77.90
48686;DHT22;34485;51.536;3.816;2023-05-23T15:07:22;15.50;80.60
48686;DHT22;34485;51.536;3.816;2023-05-23T15:09:48;15.40;86.30
48686;DHT22;34485;51.536;3.816;2023-05-23T15:12:13;15.40;80.70
48686;DHT22;34485;51.536;3.816;2023-05-23T15:14:42;15.50;81.40
48686;DHT22;34485;51.536;3.816;2023-05-23T15:17:08;15.60;82.10
48686;DHT22;34485;51.536;3.816;2023-05-23T15:19:37;15.70;82.20
48686;DHT22;34485;51.536;3.816;2023-05-23T15:22:04;15.70;84.00
48686;DHT22;34485;51.536;3.816;2023-05-23T15:24:30;15.60;83.80
48686;DHT22;34485;51.536;3.816;2023-05-23T15:26:55;15.50;84.90
48686;DHT22;34485;51.536;3.816;2023-05-23T15:29:21;15.40;80.70
48686;DHT22;34485;51.536;3.816;2023-05-23T15:31:49;15.30;82.40
48686;DHT22;34485;51.536;3.816;2023-05-23T15:34:15;15.40;84.90
48686;DHT22;34485;51.536;3.816;2023-05-23T15:36:41;15.20;83.20
48686;DHT22;34485;51.536;3.816;2023-05-23T15:39:06;15.20;83.30
48686;DHT22;34485;51.536;3.816;2023-05-23T15:41:32;15.10;84.70
48686;DHT22;34485;51.536;3.816;2023-05-23T15:43:57;15.00;84.00
48686;DHT22;34485;51.536;3.816;2023-05-23T15:46:23;14.90;86.00
48686;DHT22;34485;51.536;3.816;2023-05-23T15:48:48;14.80;84.10
48686;DHT22;34485;51.536;3.816;2023-05-23T15:51:14;14.80;85.50
48686;DHT22;34485;51.536;3.816;2023-05-23T15:53:41;14.80;84.60
48686;DHT22;34485;51.536;3.816;2023-05-23T15:56:07;14.80;84.50
48686;DHT22;34485;51.536;3.816;2023-05-23T15:58:32;14.70;81.10
48686;DHT22;34485;51.536;3.816;2023-05-23T16:00:58;14.70;83.70
48686;DHT22;34485;51.536;3.816;2023-05-23T16:03:24;14.60;84.80
48686;DHT22;34485;51.536;3.816;2023-05-23T16:05:50;14.60;86.50
48686;DHT22;34485;51.536;3.816;2023-05-23T16:08:16;14.50;90.00
48686;DHT22;34485;51.536;3.816;2023-05-23T16:10:42;14.60;89.00